Time;durP1;ratioP1;P1;durP2;ratioP2;P2;SDS_P1;SDS_P2;PMS_P1;PMS_P2;Temp;Humidity;BMP_temperature;BMP_pressure;BME280_temperature;BME280_humidity;BME280_pressure;Samples;Min_cycle;Max_cycle;Signal;HPM_P1;HPM_P2
2022/04/29 00:02:09;;;;;;;5.78;3.88;;;13.00;99.90;;;;;;7386992;19;20174;-75
2022/04/29 00:04:39;;;;;;;4.43;3.70;;;13.10;99.90;;;;;;7384937;19;20143;-75
2022/04/29 00:07:06;;;;;;;5.50;4.03;;;13.20;99.90;;;;;;7387593;19;20142;-75
2022/04/29 00:09:34;;;;;;;4.30;3.05;;;13.30;99.90;;;;;;7389371;19;20146;-76
2022/04/29 00:12:02;;;;;;;3.60;3.30;;;13.30;99.90;;;;;;7386432;19;20498;-77
2022/04/29 00:14:29;;;;;;;4.95;2.95;;;13.30;99.90;;;;;;7385800;19;20139;-75
2022/04/29 00:16:55;;;;;;;3.78;2.95;;;13.00;99.90;;;;;;7385558;19;20135;-77
2022/04/29 00:19:21;;;;;;;4.77;3.37;;;12.70;99.90;;;;;;7385834;19;20266;-76
2022/04/29 00:21:47;;;;;;;5.10;3.17;;;12.90;99.90;;;;;;7385208;19;20174;-74
2022/04/29 00:24:13;;;;;;;4.05;3.10;;;12.90;99.90;;;;;;7384506;19;20130;-76
2022/04/29 00:26:39;;;;;;;6.65;3.47;;;13.10;99.90;;;;;;7384797;19;20198;-74
2022/04/29 00:29:07;;;;;;;4.33;3.40;;;13.20;99.90;;;;;;7386035;19;20601;-77
2022/04/29 00:31:34;;;;;;;4.20;3.40;;;13.30;99.90;;;;;;7389325;19;20138;-76
2022/04/29 00:34:01;;;;;;;4.40;3.40;;;13.30;99.90;;;;;;7386463;19;20205;-76
2022/04/29 00:36:26;;;;;;;5.57;3.63;;;12.80;99.90;;;;;;7388427;19;20126;-77
2022/04/29 00:38:53;;;;;;;8.83;3.27;;;12.70;99.90;;;;;;7387410;19;20145;-77
2022/04/29 00:41:20;;;;;;;3.80;3.20;;;12.70;99.90;;;;;;7384811;19;20130;-75
2022/04/29 00:43:46;;;;;;;5.50;3.10;;;12.80;99.90;;;;;;7385652;19;20517;-76
2022/04/29 00:46:12;;;;;;;4.03;3.03;;;13.00;99.90;;;;;;7388486;19;20213;-77
2022/04/29 00:48:38;;;;;;;3.90;2.80;;;13.10;99.90;;;;;;7387998;19;20599;-78
2022/04/29 00:51:04;;;;;;;3.93;2.80;;;13.10;99.90;;;;;;7386217;19;20451;-77
2022/04/29 00:53:30;;;;;;;4.43;2.77;;;13.20;99.90;;;;;;7386246;19;20147;-76
2022/04/29 00:55:57;;;;;;;5.87;3.20;;;13.10;99.90;;;;;;7387052;19;20142;-76
2022/04/29 00:58:43;;;;;;;3.77;3.10;;;13.00;99.90;;;;;;7385049;19;20130;-76
2022/04/29 01:01:10;;;;;;;3.83;3.30;;;13.10;99.90;;;;;;7387974;19;20133;-75
2022/04/29 01:03:42;;;;;;;3.22;2.88;;;13.10;99.90;;;;;;7384193;19;20199;-75
2022/04/29 01:06:08;;;;;;;3.80;2.77;;;13.00;99.90;;;;;;7386998;19;20134;-76
2022/04/29 01:08:34;;;;;;;3.47;3.03;;;12.80;99.90;;;;;;7384565;19;20143;-75
2022/04/29 01:11:00;;;;;;;6.00;3.50;;;12.80;99.90;;;;;;7384376;19;20134;-77
2022/04/29 01:13:27;;;;;;;4.93;3.43;;;12.90;99.90;;;;;;7385451;19;20845;-77
2022/04/29 01:15:57;;;;;;;4.33;3.23;;;12.80;99.90;;;;;;7384438;19;20151;-77
2022/04/29 01:18:24;;;;;;;5.57;3.57;;;12.80;99.90;;;;;;7388273;19;20205;-77
2022/04/29 01:21:01;;;;;;;5.23;3.50;;;12.80;99.90;;;;;;7384262;19;20170;-77
2022/04/29 01:23:28;;;;;;;4.13;3.20;;;12.80;99.90;;;;;;7383639;19;20153;-75
2022/04/29 01:25:54;;;;;;;3.73;2.90;;;12.80;99.90;;;;;;7382495;19;20146;-75
2022/04/29 01:28:23;;;;;;;3.57;3.23;;;12.70;99.90;;;;;;7385503;19;20513;-77
2022/04/29 01:30:51;;;;;;;4.22;2.75;;;12.40;99.90;;;;;;7384811;19;20277;-76
2022/04/29 01:33:18;;;;;;;8.27;3.63;;;12.30;99.90;;;;;;7383772;19;20149;-77
2022/04/29 01:35:45;;;;;;;5.67;3.57;;;12.20;99.90;;;;;;7383170;19;20493;-77
2022/04/29 01:38:10;;;;;;;4.10;3.27;;;12.50;99.90;;;;;;7382340;19;20139;-77
2022/04/29 01:40:36;;;;;;;3.63;3.23;;;12.30;99.90;;;;;;7390485;19;20508;-80
2022/04/29 01:43:02;;;;;;;3.90;3.30;;;12.50;99.90;;;;;;7391832;19;20118;-77
2022/04/29 01:45:29;;;;;;;5.93;3.40;;;12.60;99.90;;;;;;7395424;19;20202;-75
2022/04/29 01:47:54;;;;;;;4.47;3.27;;;12.30;99.90;;;;;;7389649;19;20223;-77
2022/04/29 01:50:20;;;;;;;3.80;3.20;;;12.30;99.90;;;;;;7390940;19;20126;-77
2022/04/29 01:52:46;;;;;;;5.07;3.70;;;12.50;99.90;;;;;;7389709;19;20889;-76
2022/04/29 01:55:12;;;;;;;8.03;3.80;;;12.50;99.90;;;;;;7391400;19;20143;-75
2022/04/29 01:57:38;;;;;;;5.83;3.60;;;12.40;99.90;;;;;;7392207;19;20129;-76
2022/04/29 02:00:04;;;;;;;5.73;3.60;;;12.30;99.90;;;;;;7392716;19;20135;-75
2022/04/29 02:02:30;;;;;;;7.07;3.53;;;12.30;99.90;;;;;;7398359;19;20135;-77
2022/04/29 02:04:56;;;;;;;3.50;3.20;;;12.30;99.90;;;;;;7393522;19;20757;-76
2022/04/29 02:07:22;;;;;;;5.67;3.47;;;12.40;99.90;;;;;;7395754;19;20184;-74
2022/04/29 02:09:48;;;;;;;6.27;3.20;;;12.00;99.90;;;;;;7400655;19;20154;-75
2022/04/29 02:12:15;;;;;;;5.00;3.40;;;12.00;99.90;;;;;;7392475;19;20164;-74
2022/04/29 02:14:42;;;;;;;4.00;3.40;;;12.10;99.90;;;;;;7392159;19;20135;-74
2022/04/29 02:17:09;;;;;;;6.00;3.77;;;12.30;99.90;;;;;;7398100;19;20148;-77
2022/04/29 02:19:36;;;;;;;6.20;3.50;;;12.40;99.90;;;;;;7404570;19;20149;-75
2022/04/29 02:22:04;;;;;;;5.03;3.60;;;12.40;99.90;;;;;;7395702;19;20191;-78
2022/04/29 02:24:31;;;;;;;4.60;3.37;;;12.10;99.90;;;;;;7391871;19;20131;-76
2022/04/29 02:27:00;;;;;;;6.07;3.70;;;12.10;99.90;;;;;;7390300;19;20131;-77
2022/04/29 02:29:29;;;;;;;4.73;3.37;;;12.00;99.90;;;;;;7389086;19;20147;-75
2022/04/29 02:31:57;;;;;;;4.20;3.50;;;11.90;99.90;;;;;;7394471;19;20147;-75
2022/04/29 02:34:23;;;;;;;5.53;3.10;;;11.90;99.90;;;;;;7397505;19;20512;-74
2022/04/29 02:36:49;;;;;;;5.03;3.37;;;12.00;99.90;;;;;;7393649;19;20145;-76
2022/04/29 02:39:15;;;;;;;4.53;3.57;;;12.10;99.90;;;;;;7390430;19;20122;-74
2022/04/29 02:41:41;;;;;;;3.77;3.10;;;12.00;99.90;;;;;;7397014;19;20595;-76
2022/04/29 02:44:07;;;;;;;3.77;3.20;;;12.00;99.90;;;;;;7390546;19;20159;-77
2022/04/29 02:46:33;;;;;;;3.97;3.30;;;12.10;99.90;;;;;;7389981;19;20727;-75
2022/04/29 02:48:59;;;;;;;5.27;3.50;;;12.20;99.90;;;;;;7390785;19;20126;-75
2022/04/29 02:51:25;;;;;;;3.83;3.23;;;12.20;99.90;;;;;;7390998;19;20500;-76
2022/04/29 02:53:51;;;;;;;4.17;3.53;;;12.00;99.90;;;;;;7389961;19;20131;-77
2022/04/29 02:56:18;;;;;;;5.20;3.63;;;12.00;99.90;;;;;;7392865;19;20134;-74
2022/04/29 02:58:44;;;;;;;4.20;3.40;;;11.50;99.90;;;;;;7390136;19;20157;-75
2022/04/29 03:01:10;;;;;;;3.53;3.23;;;11.30;99.90;;;;;;7390953;19;20127;-75
2022/04/29 03:03:36;;;;;;;5.17;3.30;;;11.30;99.90;;;;;;7388774;19;20594;-77
2022/04/29 03:06:01;;;;;;;4.17;3.53;;;11.00;99.90;;;;;;7389166;19;20158;-74
2022/04/29 03:08:27;;;;;;;5.53;3.90;;;11.10;99.90;;;;;;7391640;19;20594;-77
2022/04/29 03:10:53;;;;;;;3.70;3.23;;;11.10;99.90;;;;;;7390614;19;20164;-76
2022/04/29 03:13:19;;;;;;;4.27;3.70;;;11.40;99.90;;;;;;7389792;19;20126;-75
2022/04/29 03:15:45;;;;;;;6.00;3.50;;;11.20;99.90;;;;;;7396778;19;20148;-77
2022/04/29 03:18:23;;;;;;;4.00;3.40;;;11.40;99.90;;;;;;7389849;19;20134;-74
2022/04/29 03:20:51;;;;;;;5.37;4.07;;;11.40;99.90;;;;;;7387865;19;20157;-75
2022/04/29 03:23:17;;;;;;;4.90;3.67;;;11.60;99.90;;;;;;7389685;19;20135;-75
2022/04/29 03:25:43;;;;;;;7.27;3.70;;;11.70;99.90;;;;;;7388477;19;20130;-75
2022/04/29 03:28:08;;;;;;;5.27;3.70;;;11.90;99.90;;;;;;7389123;19;20138;-76
2022/04/29 03:30:35;;;;;;;4.53;4.10;;;12.00;99.90;;;;;;7390161;19;20139;-76
2022/04/29 03:33:03;;;;;;;5.57;3.70;;;11.40;99.90;;;;;;7388817;19;20139;-75
2022/04/29 03:35:30;;;;;;;5.73;3.87;;;11.50;99.90;;;;;;7389193;19;20257;-74
2022/04/29 03:37:57;;;;;;;6.20;4.23;;;11.60;99.90;;;;;;7387573;19;20135;-75
2022/04/29 03:40:24;;;;;;;7.10;3.80;;;11.60;99.90;;;;;;7391490;19;20254;-74
2022/04/29 03:42:52;;;;;;;4.77;4.20;;;11.70;99.90;;;;;;7387266;19;20139;-74
2022/04/29 03:45:19;;;;;;;6.03;4.77;;;11.70;99.90;;;;;;7388573;19;20582;-76
2022/04/29 03:47:44;;;;;;;5.53;4.60;;;11.70;99.90;;;;;;7387425;19;20134;-76
2022/04/29 03:50:11;;;;;;;5.50;4.43;;;11.70;99.90;;;;;;7389459;19;20138;-73
2022/04/29 03:52:45;;;;;;;7.47;4.13;;;11.40;99.90;;;;;;7387562;19;20608;-74
2022/04/29 03:55:12;;;;;;;4.80;3.60;;;11.40;99.90;;;;;;7387356;19;20138;-77
2022/04/29 03:57:38;;;;;;;5.13;3.80;;;11.30;99.90;;;;;;7387226;19;20150;-74
2022/04/29 04:00:04;;;;;;;5.27;4.03;;;11.20;99.90;;;;;;7387001;19;20143;-76
2022/04/29 04:02:30;;;;;;;5.40;3.80;;;11.40;99.90;;;;;;7389847;19;20147;-76
2022/04/29 04:04:56;;;;;;;5.43;3.43;;;11.20;99.90;;;;;;7387913;19;20134;-75
2022/04/29 04:07:22;;;;;;;7.17;4.00;;;11.30;99.90;;;;;;7386363;19;20127;-74
2022/04/29 04:09:47;;;;;;;4.90;3.90;;;11.20;99.90;;;;;;7390459;19;20134;-74
2022/04/29 04:12:13;;;;;;;6.10;3.83;;;11.20;99.90;;;;;;7387866;19;20126;-76
2022/04/29 04:14:39;;;;;;;5.63;4.37;;;11.30;99.90;;;;;;7386804;19;20582;-74
2022/04/29 04:17:05;;;;;;;7.40;4.87;;;11.70;99.90;;;;;;7386349;19;20123;-75
2022/04/29 04:19:31;;;;;;;5.50;4.53;;;11.60;99.90;;;;;;7386863;19;20210;-75
2022/04/29 04:21:57;;;;;;;6.40;4.33;;;11.60;99.90;;;;;;7385605;19;20178;-77
2022/04/29 04:24:23;;;;;;;5.83;4.47;;;11.50;99.90;;;;;;7390235;19;20127;-76
2022/04/29 04:26:48;;;;;;;9.10;4.67;;;11.00;99.90;;;;;;7389860;19;20300;-77
2022/04/29 04:29:14;;;;;;;7.80;4.20;;;11.30;99.90;;;;;;7387436;19;20203;-77
2022/04/29 04:31:40;;;;;;;5.10;4.23;;;11.40;99.90;;;;;;7387541;19;20363;-74
2022/04/29 04:36:52;;;;;;;7.43;5.00;;;11.60;99.90;;;;;;7387060;19;20194;-76
2022/04/29 04:39:18;;;;;;;9.07;4.80;;;11.60;99.90;;;;;;7387580;19;20126;-75
2022/04/29 04:41:44;;;;;;;7.10;4.90;;;11.80;99.90;;;;;;7390919;19;20146;-73
2022/04/29 04:44:10;;;;;;;6.30;4.80;;;11.60;99.90;;;;;;7392645;19;20546;-77
2022/04/29 04:46:39;;;;;;;7.07;5.40;;;11.70;99.90;;;;;;7385983;19;20610;-76
2022/04/29 04:49:07;;;;;;;9.00;5.07;;;11.70;99.90;;;;;;7385987;19;20610;-74
2022/04/29 04:51:33;;;;;;;8.73;5.37;;;11.70;99.90;;;;;;7385779;19;20532;-74
2022/04/29 04:53:59;;;;;;;8.50;5.27;;;11.60;99.90;;;;;;7385628;19;20153;-75
2022/04/29 04:56:26;;;;;;;6.17;4.53;;;11.60;99.90;;;;;;7385199;19;20142;-75
2022/04/29 04:58:51;;;;;;;7.33;5.23;;;11.80;99.90;;;;;;7388979;19;20602;-77
2022/04/29 05:01:17;;;;;;;10.57;5.10;;;11.80;99.90;;;;;;7388305;19;20164;-76
2022/04/29 05:03:43;;;;;;;9.93;4.60;;;11.70;99.90;;;;;;7386673;19;20159;-75
2022/04/29 05:06:09;;;;;;;8.37;5.00;;;11.90;99.90;;;;;;7393906;19;20157;-75
2022/04/29 05:08:35;;;;;;;8.07;5.60;;;11.90;99.90;;;;;;7391554;19;20134;-75
2022/04/29 05:11:01;;;;;;;8.97;5.47;;;11.90;99.90;;;;;;7390139;19;20134;-72
2022/04/29 05:13:27;;;;;;;9.83;5.37;;;11.80;99.90;;;;;;7389694;19;20134;-74
2022/04/29 05:15:53;;;;;;;8.63;5.37;;;11.90;99.90;;;;;;7394479;19;20134;-76
2022/04/29 05:18:19;;;;;;;7.93;5.30;;;11.80;99.90;;;;;;7395191;19;20151;-75
2022/04/29 05:20:44;;;;;;;8.20;5.87;;;11.90;99.90;;;;;;7395285;19;20154;-73
2022/04/29 05:23:10;;;;;;;5.57;4.50;;;11.80;99.90;;;;;;7394429;19;20138;-76
2022/04/29 05:25:36;;;;;;;6.83;5.20;;;11.70;99.90;;;;;;7395711;19;20607;-75
2022/04/29 05:28:03;;;;;;;11.83;5.40;;;11.60;99.90;;;;;;7396184;19;20162;-77
2022/04/29 05:30:30;;;;;;;8.93;5.73;;;11.70;99.90;;;;;;7392354;19;20142;-74
2022/04/29 05:32:57;;;;;;;8.03;5.70;;;11.80;99.90;;;;;;7395180;19;20146;-74
2022/04/29 05:35:23;;;;;;;8.37;5.60;;;11.90;99.90;;;;;;7394523;19;20134;-75
2022/04/29 05:37:50;;;;;;;10.30;5.70;;;12.00;99.90;;;;;;7393823;19;20838;-74
2022/04/29 05:43:02;;;;;;;8.93;6.10;;;12.10;99.90;;;;;;7395066;19;20202;-75
2022/04/29 05:45:28;;;;;;;9.13;6.23;;;12.00;99.90;;;;;;7396740;19;20198;-75
2022/04/29 05:47:54;;;;;;;8.10;5.30;;;12.00;99.90;;;;;;7400558;19;20150;-76
2022/04/29 05:50:20;;;;;;;7.57;6.00;;;12.00;99.90;;;;;;7395416;19;20139;-75
2022/04/29 05:52:46;;;;;;;6.57;5.43;;;12.10;99.90;;;;;;7395711;19;20135;-75
2022/04/29 05:55:13;;;;;;;7.27;5.60;;;12.00;99.90;;;;;;7396768;19;20673;-75
2022/04/29 05:57:39;;;;;;;9.03;5.90;;;12.00;99.90;;;;;;7397092;19;20135;-74
2022/04/29 06:00:06;;;;;;;7.70;5.60;;;12.00;99.90;;;;;;7394571;19;20135;-73
2022/04/29 06:02:33;;;;;;;10.10;5.97;;;12.00;99.90;;;;;;7395635;19;20161;-75
2022/04/29 06:05:02;;;;;;;9.73;6.07;;;12.00;99.90;;;;;;7392395;19;20143;-75
2022/04/29 06:07:28;;;;;;;9.00;5.77;;;12.00;99.90;;;;;;7398894;19;20135;-75
2022/04/29 06:09:54;;;;;;;9.37;5.93;;;12.20;99.90;;;;;;7395355;19;20139;-75
2022/04/29 06:12:20;;;;;;;10.77;5.23;;;12.30;99.90;;;;;;7395083;19;20143;-74
2022/04/29 06:14:45;;;;;;;7.83;6.03;;;12.30;99.90;;;;;;7392821;19;20412;-79
2022/04/29 06:17:12;;;;;;;8.00;6.00;;;12.30;99.90;;;;;;7390891;19;20402;-71
2022/04/29 06:19:39;;;;;;;9.50;6.20;;;12.30;99.90;;;;;;7395247;19;20586;-72
2022/04/29 06:22:05;;;;;;;9.90;6.03;;;12.40;99.90;;;;;;7392038;19;20162;-79
2022/04/29 06:24:32;;;;;;;9.77;6.43;;;12.40;99.90;;;;;;7394095;19;20248;-74
2022/04/29 06:26:58;;;;;;;8.33;6.27;;;12.40;99.90;;;;;;7395464;19;20248;-76
2022/04/29 06:29:24;;;;;;;8.27;5.53;;;12.50;99.90;;;;;;7399355;19;20182;-77
2022/04/29 06:31:51;;;;;;;9.17;6.40;;;12.60;99.90;;;;;;7396913;19;20517;-76
2022/04/29 06:34:17;;;;;;;8.17;5.67;;;13.00;99.90;;;;;;7397336;19;20138;-73
2022/04/29 06:36:43;;;;;;;7.77;5.83;;;13.40;99.90;;;;;;7394000;19;20167;-76
2022/04/29 06:39:11;;;;;;;10.13;6.07;;;13.90;99.90;;;;;;7396208;19;20622;-74
2022/04/29 06:41:37;;;;;;;12.07;6.07;;;14.00;99.90;;;;;;7394147;19;20587;-74
2022/04/29 06:44:03;;;;;;;8.07;5.90;;;14.20;99.90;;;;;;7392988;19;20138;-78
2022/04/29 06:46:29;;;;;;;7.87;5.90;;;14.50;99.90;;;;;;7394143;19;20138;-73
2022/04/29 06:48:56;;;;;;;9.15;6.28;;;14.60;99.90;;;;;;7399306;19;20218;-77
2022/04/29 06:51:25;;;;;;;6.40;5.53;;;14.90;99.90;;;;;;7397450;19;20150;-76
2022/04/29 06:53:51;;;;;;;7.50;5.43;;;15.10;99.90;;;;;;7393158;19;20170;-75
2022/04/29 06:56:17;;;;;;;8.57;5.30;;;15.50;99.90;;;;;;7394071;19;20470;-72
2022/04/29 06:58:43;;;;;;;6.97;5.73;;;15.90;99.90;;;;;;7392141;19;20134;-72
2022/04/29 07:01:09;;;;;;;7.80;5.57;;;15.90;99.90;;;;;;7392156;19;20139;-77
2022/04/29 07:03:39;;;;;;;7.90;5.55;;;16.00;99.90;;;;;;7393647;19;20546;-76
2022/04/29 07:06:06;;;;;;;7.40;5.47;;;15.90;99.90;;;;;;7392337;19;20255;-71
2022/04/29 07:08:33;;;;;;;7.22;5.60;;;15.80;99.90;;;;;;7394477;19;20131;-73
2022/04/29 07:11:00;;;;;;;5.83;5.17;;;15.70;99.90;;;;;;7397850;19;20131;-76
2022/04/29 07:13:27;;;;;;;6.00;5.20;;;15.60;99.90;;;;;;7394398;19;20151;-76
2022/04/29 07:15:55;;;;;;;8.77;5.60;;;15.60;99.90;;;;;;7393935;19;20650;-74
2022/04/29 07:18:21;;;;;;;6.68;5.35;;;15.60;99.90;;;;;;7392302;19;20137;-72
2022/04/29 07:20:47;;;;;;;7.78;5.47;;;15.70;99.90;;;;;;7385703;19;20151;-76
2022/04/29 07:23:13;;;;;;;7.10;5.65;;;15.50;99.90;;;;;;7391382;19;20137;-76
2022/04/29 07:25:42;;;;;;;8.87;5.30;;;15.20;99.90;;;;;;7391520;19;20137;-73
2022/04/29 07:28:10;;;;;;;6.20;5.20;;;15.10;99.90;;;;;;7391124;19;20522;-73
2022/04/29 07:30:38;;;;;;;6.30;5.33;;;15.10;99.90;;;;;;7395681;19;20489;-74
2022/04/29 07:33:05;;;;;;;9.45;6.85;;;15.10;99.90;;;;;;7388939;19;20499;-74
2022/04/29 07:43:44;;;;;;;9.25;5.78;;;15.30;99.90;;;;;;7390313;19;20150;-78
2022/04/29 07:46:10;;;;;;;10.00;6.28;;;15.50;99.90;;;;;;7394271;19;20145;-73
2022/04/29 07:48:38;;;;;;;10.13;5.97;;;15.80;99.90;;;;;;7393226;19;20152;-76
2022/04/29 07:51:07;;;;;;;7.00;5.65;;;15.70;99.90;;;;;;7393663;19;20186;-79
2022/04/29 07:53:35;;;;;;;8.85;5.95;;;15.90;99.90;;;;;;7391345;19;20165;-71
2022/04/29 07:56:02;;;;;;;7.18;5.97;;;15.80;99.90;;;;;;7384516;19;20217;-77
2022/04/29 07:58:28;;;;;;;10.35;6.32;;;15.80;99.90;;;;;;7386734;19;20134;-75
2022/04/29 08:00:55;;;;;;;8.38;6.13;;;15.90;99.90;;;;;;7390566;19;20594;-71
2022/04/29 08:03:22;;;;;;;8.20;5.60;;;15.80;99.90;;;;;;7389794;19;20138;-71
2022/04/29 08:05:49;;;;;;;9.30;6.07;;;15.70;99.90;;;;;;7397264;19;20582;-76
2022/04/29 08:08:20;;;;;;;7.80;5.97;;;15.50;99.90;;;;;;7391487;19;20146;-71
2022/04/29 08:10:49;;;;;;;8.68;6.32;;;15.40;99.90;;;;;;7389461;19;20643;-74
2022/04/29 08:13:17;;;;;;;7.88;6.22;;;15.40;99.90;;;;;;7389057;19;20590;-73
2022/04/29 08:15:45;;;;;;;9.80;6.15;;;15.30;99.90;;;;;;7388632;19;20135;-71
2022/04/29 08:18:12;;;;;;;9.45;6.75;;;15.30;99.90;;;;;;7389501;19;20380;-72
2022/04/29 08:20:39;;;;;;;12.02;6.47;;;15.40;99.90;;;;;;7389715;19;20146;-77
2022/04/29 08:23:05;;;;;;;8.18;5.93;;;15.60;99.90;;;;;;7389485;19;20154;-72
2022/04/29 08:25:32;;;;;;;10.40;5.22;;;15.80;99.90;;;;;;7388168;19;20139;-72
2022/04/29 08:28:02;;;;;;;8.95;5.68;;;16.20;99.90;;;;;;7396001;19;20162;-77
2022/04/29 08:30:30;;;;;;;7.25;5.78;;;16.70;99.90;;;;;;7384447;19;20170;-78
2022/04/29 08:32:57;;;;;;;7.53;6.03;;;16.90;99.90;;;;;;7386629;19;20138;-73
2022/04/29 08:35:25;;;;;;;8.20;5.50;;;17.00;99.90;;;;;;7385615;19;20234;-77
2022/04/29 08:37:54;;;;;;;7.50;5.20;;;17.10;99.90;;;;;;7386686;19;20130;-73
2022/04/29 08:40:20;;;;;;;6.43;5.43;;;17.20;99.90;;;;;;7388304;19;20598;-72
2022/04/29 08:42:46;;;;;;;6.68;5.28;;;17.30;99.60;;;;;;7388976;19;20250;-73
2022/04/29 08:45:14;;;;;;;7.15;5.15;;;17.30;99.20;;;;;;7388533;19;20625;-77
2022/04/29 08:47:42;;;;;;;8.55;5.18;;;17.40;99.20;;;;;;7395539;19;20135;-69
2022/04/29 08:50:14;;;;;;;5.68;4.47;;;17.40;99.00;;;;;;7394387;19;20142;-80
2022/04/29 08:52:40;;;;;;;10.20;5.55;;;17.60;98.90;;;;;;7389873;19;20214;-72
2022/04/29 09:00:41;;;;;;;5.55;4.28;;;17.60;98.40;;;;;;7386956;19;20559;-76
2022/04/29 09:03:20;;;;;;;6.18;4.72;;;17.70;98.40;;;;;;7390363;19;20200;-70
2022/04/29 09:05:48;;;;;;;5.15;4.07;;;17.60;98.40;;;;;;7390286;19;20146;-79
2022/04/29 09:08:18;;;;;;;5.38;4.15;;;17.60;98.10;;;;;;7400160;19;20143;-81
2022/04/29 09:10:59;;;;;;;4.78;4.10;;;17.80;98.10;;;;;;7404240;19;20213;-70
2022/04/29 09:13:26;;;;;;;3.60;3.25;;;17.80;97.60;;;;;;7394504;19;20145;-80
2022/04/29 09:15:58;;;;;;;5.82;4.40;;;17.80;97.30;;;;;;7389001;19;20143;-76
2022/04/29 09:18:51;;;;;;;6.03;4.38;;;17.80;97.30;;;;;;7390454;19;20139;-74
2022/04/29 09:21:27;;;;;;;5.90;3.92;;;17.80;97.50;;;;;;7389400;19;20174;-75
2022/04/29 09:24:03;;;;;;;6.45;4.05;;;17.80;96.90;;;;;;7392926;19;20166;-74
2022/04/29 09:26:35;;;;;;;4.88;3.95;;;17.80;96.60;;;;;;7401824;19;20489;-79
2022/04/29 09:29:20;;;;;;;6.13;3.97;;;17.90;97.00;;;;;;7391175;19;20178;-76
2022/04/29 09:31:58;;;;;;;6.13;4.15;;;18.20;96.40;;;;;;7388254;19;20146;-74
2022/04/29 09:34:48;;;;;;;7.40;4.70;;;18.30;96.50;;;;;;7389931;19;20252;-75
2022/04/29 09:37:15;;;;;;;3.60;3.03;;;18.50;96.00;;;;;;7387735;19;20167;-75
2022/04/29 09:40:05;;;;;;;3.88;2.85;;;18.80;95.20;;;;;;7388808;19;20248;-75
2022/04/29 09:42:39;;;;;;;5.72;4.00;;;18.80;94.60;;;;;;7387123;19;20127;-80
2022/04/29 09:45:20;;;;;;;5.70;3.20;;;18.90;93.90;;;;;;7390143;19;20141;-79
2022/04/29 09:47:54;;;;;;;5.90;2.97;;;18.90;93.40;;;;;;7397659;19;20487;-74
2022/04/29 09:50:20;;;;;;;4.68;3.10;;;18.90;93.60;;;;;;7397387;19;20238;-72
2022/04/29 09:52:49;;;;;;;3.92;2.90;;;19.00;93.70;;;;;;7392526;19;20167;-75
2022/04/29 09:55:19;;;;;;;4.68;2.80;;;19.10;93.60;;;;;;7390793;19;20139;-76
2022/04/29 09:57:59;;;;;;;3.47;2.70;;;19.10;92.50;;;;;;7388111;19;20534;-74
2022/04/29 10:00:25;;;;;;;5.32;3.10;;;19.00;92.50;;;;;;7390356;19;20138;-78
2022/04/29 10:02:52;;;;;;;3.25;2.55;;;18.90;92.20;;;;;;7399100;19;20622;-80
2022/04/29 10:05:19;;;;;;;4.28;2.90;;;19.00;92.30;;;;;;7396301;19;20131;-74
2022/04/29 10:07:46;;;;;;;3.25;2.60;;;18.90;92.00;;;;;;7395061;19;20153;-79
2022/04/29 10:10:14;;;;;;;4.47;2.55;;;18.80;92.40;;;;;;7400033;19;20135;-80
2022/04/29 10:12:47;;;;;;;2.63;2.38;;;18.90;93.10;;;;;;7404419;19;20584;-77
2022/04/29 10:15:16;;;;;;;3.85;2.70;;;19.00;92.00;;;;;;7396978;19;20170;-73
2022/04/29 10:23:16;;;;;;;3.83;2.40;;;18.80;92.00;;;;;;7393939;19;20149;-78
2022/04/29 10:25:44;;;;;;;4.15;2.75;;;18.70;91.50;;;;;;7392629;19;20162;-73
2022/04/29 10:28:15;;;;;;;3.28;2.60;;;18.90;91.40;;;;;;7393317;19;20137;-79
2022/04/29 10:30:41;;;;;;;2.45;2.20;;;19.00;91.10;;;;;;7394667;19;20199;-73
2022/04/29 10:33:12;;;;;;;2.50;2.20;;;19.00;91.00;;;;;;7396273;19;20167;-75
2022/04/29 10:35:43;;;;;;;3.72;2.50;;;19.00;91.60;;;;;;7391938;19;20399;-76
2022/04/29 10:38:17;;;;;;;3.00;2.60;;;19.00;90.70;;;;;;7400250;19;20190;-74
2022/04/29 10:40:46;;;;;;;2.92;2.00;;;19.10;90.70;;;;;;7388944;19;20165;-75
2022/04/29 10:43:18;;;;;;;3.17;2.35;;;19.20;90.00;;;;;;7395988;19;20137;-80
2022/04/29 10:46:08;;;;;;;2.10;1.90;;;19.30;87.50;;;;;;7390739;19;20130;-79
2022/04/29 10:48:35;;;;;;;3.08;1.70;;;19.40;85.00;;;;;;7390144;19;20206;-75
2022/04/29 10:51:10;;;;;;;2.35;1.88;;;19.40;84.80;;;;;;7397588;19;20130;-77
2022/04/29 10:53:41;;;;;;;5.45;2.10;;;19.60;83.20;;;;;;7401752;19;20142;-78
2022/04/29 10:56:26;;;;;;;3.20;1.77;;;19.60;83.00;;;;;;7395481;19;20151;-79
2022/04/29 10:58:58;;;;;;;6.10;1.95;;;19.60;82.70;;;;;;7403359;19;20134;-79
2022/04/29 11:01:27;;;;;;;3.50;2.00;;;19.60;82.60;;;;;;7402479;19;20142;-83
2022/04/29 11:03:54;;;;;;;2.25;1.90;;;19.80;82.90;;;;;;7400324;19;20574;-80
2022/04/29 11:06:20;;;;;;;3.55;1.65;;;19.90;84.00;;;;;;7393916;19;20477;-81
2022/04/29 11:08:49;;;;;;;3.25;2.00;;;19.90;83.30;;;;;;7390685;19;20131;-80
2022/04/29 11:11:15;;;;;;;1.88;1.67;;;20.10;82.50;;;;;;7393689;19;20701;-80
2022/04/29 11:13:47;;;;;;;2.25;1.95;;;20.10;82.40;;;;;;7395975;19;20138;-77
2022/04/29 11:16:15;;;;;;;3.53;1.90;;;20.10;80.40;;;;;;7398574;19;20151;-86
2022/04/29 11:18:43;;;;;;;2.90;1.85;;;20.00;79.80;;;;;;7404325;19;20151;-82
2022/04/29 11:26:45;;;;;;;3.28;2.35;;;20.00;82.00;;;;;;7400268;19;20142;-87
2022/04/29 11:29:11;;;;;;;4.82;1.90;;;20.10;81.10;;;;;;7402991;19;20151;-85
2022/04/29 11:31:38;;;;;;;2.35;2.15;;;20.10;80.30;;;;;;7404914;19;20488;-84
2022/04/29 11:34:11;;;;;;;3.92;2.03;;;19.80;81.50;;;;;;7402835;19;20149;-82
2022/04/29 11:36:38;;;;;;;2.13;1.63;;;19.90;80.20;;;;;;7412805;19;20142;-80
2022/04/29 11:39:24;;;;;;;3.85;1.77;;;19.80;80.20;;;;;;7404549;19;20814;-86
2022/04/29 11:42:01;;;;;;;2.67;1.90;;;19.80;81.40;;;;;;7404032;19;20158;-81
2022/04/29 11:44:34;;;;;;;2.65;1.75;;;19.70;81.00;;;;;;7400250;19;20138;-82
2022/04/29 11:47:01;;;;;;;3.53;2.10;;;19.70;80.40;;;;;;7398538;19;20176;-78
2022/04/29 11:49:32;;;;;;;2.55;2.00;;;19.90;81.00;;;;;;7396919;19;20149;-79
2022/04/29 11:52:17;;;;;;;2.80;1.55;;;20.00;79.50;;;;;;7398232;19;20131;-84
2022/04/29 11:54:55;;;;;;;4.63;2.15;;;20.10;80.20;;;;;;7402201;19;20135;-79
2022/04/29 11:57:22;;;;;;;3.95;1.85;;;20.00;80.20;;;;;;7398771;19;20134;-78
2022/04/29 11:59:48;;;;;;;1.67;1.58;;;20.00;79.20;;;;;;7398042;19;20624;-81
2022/04/29 12:02:19;;;;;;;2.22;1.60;;;20.00;79.00;;;;;;7388027;19;20155;-80
2022/04/29 12:05:03;;;;;;;2.05;1.80;;;19.90;78.90;;;;;;7390846;19;20913;-83
2022/04/29 12:07:50;;;;;;;3.25;1.80;;;19.90;79.50;;;;;;7392053;19;20146;-81
2022/04/29 12:10:16;;;;;;;1.67;1.50;;;19.90;79.10;;;;;;7396158;19;20577;-84
2022/04/29 12:12:42;;;;;;;2.45;1.90;;;20.00;80.60;;;;;;7395014;19;20154;-78
2022/04/29 12:15:11;;;;;;;2.17;1.80;;;20.10;77.60;;;;;;7391481;19;20167;-78
2022/04/29 12:17:42;;;;;;;4.50;1.98;;;20.00;80.00;;;;;;7392770;19;20148;-79
2022/04/29 12:20:14;;;;;;;4.22;2.28;;;20.00;79.40;;;;;;7406336;19;20170;-83
2022/04/29 12:22:41;;;;;;;3.35;1.80;;;19.90;80.00;;;;;;7397108;19;20145;-78
2022/04/29 12:25:25;;;;;;;2.40;1.77;;;20.00;80.40;;;;;;7392540;19;20169;-76
2022/04/29 12:28:28;;;;;;;2.10;1.73;;;20.10;77.70;;;;;;7388470;19;20170;-78
2022/04/29 12:34:48;;;;;;;2.05;1.83;;;19.90;76.10;;;;;;7394374;19;20807;-86
2022/04/29 12:36:59;;;;;;;4.90;2.00;;;20.00;74.70;;;;;;7395560;19;20150;-85
2022/04/29 12:39:39;;;;;;;2.30;1.95;;;20.00;77.20;;;;;;7397721;19;20141;-85
2022/04/29 12:42:12;;;;;;;2.42;2.08;;;20.20;77.60;;;;;;7398620;19;20135;-79
2022/04/29 12:47:40;;;;;;;2.38;1.92;;;20.50;75.50;;;;;;7390657;19;20137;-75
2022/04/29 12:50:38;;;;;;;2.67;2.05;;;20.70;75.30;;;;;;7392657;19;20138;-76
2022/04/29 12:53:07;;;;;;;2.50;1.75;;;20.80;75.70;;;;;;7398688;19;20145;-81
2022/04/29 12:55:36;;;;;;;1.73;1.60;;;20.90;76.60;;;;;;7403409;19;20148;-80
2022/04/29 12:58:11;;;;;;;2.10;1.90;;;20.90;74.20;;;;;;7393555;19;20142;-80
2022/04/29 13:00:41;;;;;;;3.00;2.50;;;20.80;74.40;;;;;;7396844;19;20242;-80
2022/04/29 13:03:18;;;;;;;3.22;2.25;;;20.80;74.70;;;;;;7391842;19;20618;-76
2022/04/29 13:05:44;;;;;;;2.22;1.75;;;20.70;73.70;;;;;;7395814;19;20210;-81
2022/04/29 13:08:10;;;;;;;2.60;2.20;;;20.60;76.00;;;;;;7392189;19;20154;-78
2022/04/29 13:10:51;;;;;;;2.45;1.98;;;20.60;74.50;;;;;;7389898;19;20135;-79
2022/04/29 13:13:18;;;;;;;2.05;1.80;;;20.60;74.80;;;;;;7390960;19;20154;-76
2022/04/29 13:15:45;;;;;;;2.40;1.92;;;20.50;76.80;;;;;;7389355;19;20149;-80
2022/04/29 13:18:14;;;;;;;1.80;1.70;;;20.60;75.80;;;;;;7403629;19;20179;-78
2022/04/29 13:20:42;;;;;;;2.03;1.83;;;20.60;76.10;;;;;;7392274;19;20161;-77
2022/04/29 13:23:10;;;;;;;2.72;1.95;;;20.60;76.60;;;;;;7390260;19;20797;-77
2022/04/29 13:25:43;;;;;;;2.47;1.83;;;20.70;75.80;;;;;;7391723;19;20655;-83
2022/04/29 13:28:10;;;;;;;2.85;2.20;;;20.80;75.30;;;;;;7392840;19;20142;-77
2022/04/29 13:30:38;;;;;;;2.17;1.83;;;20.80;76.60;;;;;;7389171;19;20449;-76